sensor_id;sensor_type;location;lat;lon;timestamp;temperature;humidity
13354;DHT22;6746;50.892;4.064;2022-11-21T00:01:19;6.40;99.90
13354;DHT22;6746;50.892;4.064;2022-11-21T00:04:06;6.40;99.90
13354;DHT22;6746;50.892;4.064;2022-11-21T00:06:54;6.30;99.90
13354;DHT22;6746;50.892;4.064;2022-11-21T00:09:43;6.20;99.90
13354;DHT22;6746;50.892;4.064;2022-11-21T00:12:31;6.20;99.90
13354;DHT22;6746;50.892;4.064;2022-11-21T00:15:19;6.20;99.90
13354;DHT22;6746;50.892;4.064;2022-11-21T00:18:07;6.20;99.90
13354;DHT22;6746;50.892;4.064;2022-11-21T00:20:46;6.20;99.90
13354;DHT22;6746;50.892;4.064;2022-11-21T00:23:24;6.30;99.90
13354;DHT22;6746;50.892;4.064;2022-11-21T00:26:05;6.20;99.90
13354;DHT22;6746;50.892;4.064;2022-11-21T00:28:43;6.20;99.90
13354;DHT22;6746;50.892;4.064;2022-11-21T00:31:22;6.20;99.90
13354;DHT22;6746;50.892;4.064;2022-11-21T00:34:02;6.30;99.90
13354;DHT22;6746;50.892;4.064;2022-11-21T00:36:40;6.30;99.90
13354;DHT22;6746;50.892;4.064;2022-11-21T00:39:18;6.40;99.90
13354;DHT22;6746;50.892;4.064;2022-11-21T00:41:56;6.50;99.90
13354;DHT22;6746;50.892;4.064;2022-11-21T00:44:35;6.50;99.90
13354;DHT22;6746;50.892;4.064;2022-11-21T00:47:22;6.60;99.90
13354;DHT22;6746;50.892;4.064;2022-11-21T00:50:01;6.60;99.90
13354;DHT22;6746;50.892;4.064;2022-11-21T00:52:39;6.60;99.90
13354;DHT22;6746;50.892;4.064;2022-11-21T00:55:17;6.70;99.90
13354;DHT22;6746;50.892;4.064;2022-11-21T00:57:55;6.70;99.90
13354;DHT22;6746;50.892;4.064;2022-11-21T01:00:36;6.80;99.90
13354;DHT22;6746;50.892;4.064;2022-11-21T01:03:14;6.80;99.90
13354;DHT22;6746;50.892;4.064;2022-11-21T01:05:52;6.80;99.90
13354;DHT22;6746;50.892;4.064;2022-11-21T01:08:31;6.80;99.90
13354;DHT22;6746;50.892;4.064;2022-11-21T01:11:19;6.80;99.90
13354;DHT22;6746;50.892;4.064;2022-11-21T01:13:57;6.90;99.90
13354;DHT22;6746;50.892;4.064;2022-11-21T01:16:35;6.90;99.90
13354;DHT22;6746;50.892;4.064;2022-11-21T01:19:19;6.90;99.90
13354;DHT22;6746;50.892;4.064;2022-11-21T01:21:57;6.90;99.90
13354;DHT22;6746;50.892;4.064;2022-11-21T01:24:35;6.90;99.90
13354;DHT22;6746;50.892;4.064;2022-11-21T01:27:13;6.90;99.90
13354;DHT22;6746;50.892;4.064;2022-11-21T01:29:57;6.90;99.90
13354;DHT22;6746;50.892;4.064;2022-11-21T01:32:35;6.90;99.90
13354;DHT22;6746;50.892;4.064;2022-11-21T01:35:23;6.90;99.90
13354;DHT22;6746;50.892;4.064;2022-11-21T01:38:11;6.80;99.90
13354;DHT22;6746;50.892;4.064;2022-11-21T01:40:59;6.70;99.90
13354;DHT22;6746;50.892;4.064;2022-11-21T01:43:47;6.60;99.90
13354;DHT22;6746;50.892;4.064;2022-11-21T01:46:35;6.50;99.90
13354;DHT22;6746;50.892;4.064;2022-11-21T01:49:25;6.40;99.90
13354;DHT22;6746;50.892;4.064;2022-11-21T01:52:16;6.30;99.90
13354;DHT22;6746;50.892;4.064;2022-11-21T01:55:05;6.20;99.90
13354;DHT22;6746;50.892;4.064;2022-11-21T01:57:53;6.10;99.90
13354;DHT22;6746;50.892;4.064;2022-11-21T02:00:42;6.10;99.90
13354;DHT22;6746;50.892;4.064;2022-11-21T02:03:30;6.00;99.90
13354;DHT22;6746;50.892;4.064;2022-11-21T02:06:18;5.90;99.90
13354;DHT22;6746;50.892;4.064;2022-11-21T02:09:06;5.90;99.90
13354;DHT22;6746;50.892;4.064;2022-11-21T02:12:06;5.90;99.90
13354;DHT22;6746;50.892;4.064;2022-11-21T02:14:46;5.90;99.90
13354;DHT22;6746;50.892;4.064;2022-11-21T02:17:29;5.90;99.90
13354;DHT22;6746;50.892;4.064;2022-11-21T02:20:08;5.90;99.90
13354;DHT22;6746;50.892;4.064;2022-11-21T02:25:24;6.10;99.90
13354;DHT22;6746;50.892;4.064;2022-11-21T02:28:02;6.10;99.90
13354;DHT22;6746;50.892;4.064;2022-11-21T02:30:40;6.20;99.90
13354;DHT22;6746;50.892;4.064;2022-11-21T02:33:23;6.30;99.90
13354;DHT22;6746;50.892;4.064;2022-11-21T02:36:02;6.40;99.90
13354;DHT22;6746;50.892;4.064;2022-11-21T02:38:43;6.40;99.90
13354;DHT22;6746;50.892;4.064;2022-11-21T02:41:21;6.40;99.90
13354;DHT22;6746;50.892;4.064;2022-11-21T02:44:06;6.40;99.90
13354;DHT22;6746;50.892;4.064;2022-11-21T02:46:49;6.50;99.90
13354;DHT22;6746;50.892;4.064;2022-11-21T02:49:45;6.40;99.90
13354;DHT22;6746;50.892;4.064;2022-11-21T02:52:23;6.40;99.90
13354;DHT22;6746;50.892;4.064;2022-11-21T02:55:01;6.40;99.90
13354;DHT22;6746;50.892;4.064;2022-11-21T02:57:40;6.40;99.90
13354;DHT22;6746;50.892;4.064;2022-11-21T03:00:28;6.40;99.90
13354;DHT22;6746;50.892;4.064;2022-11-21T03:03:06;6.40;99.90
13354;DHT22;6746;50.892;4.064;2022-11-21T03:05:44;6.30;99.90
13354;DHT22;6746;50.892;4.064;2022-11-21T03:08:22;6.30;99.90
13354;DHT22;6746;50.892;4.064;2022-11-21T03:11:01;6.20;99.90
13354;DHT22;6746;50.892;4.064;2022-11-21T03:13:42;6.20;99.90
13354;DHT22;6746;50.892;4.064;2022-11-21T03:16:20;6.20;99.90
13354;DHT22;6746;50.892;4.064;2022-11-21T03:18:58;6.20;99.90
13354;DHT22;6746;50.892;4.064;2022-11-21T03:21:36;6.30;99.90
13354;DHT22;6746;50.892;4.064;2022-11-21T03:24:17;6.20;99.90
13354;DHT22;6746;50.892;4.064;2022-11-21T03:26:56;6.20;99.90
13354;DHT22;6746;50.892;4.064;2022-11-21T03:29:34;6.20;99.90
13354;DHT22;6746;50.892;4.064;2022-11-21T03:32:12;6.20;99.90
13354;DHT22;6746;50.892;4.064;2022-11-21T03:35:00;6.20;99.90
13354;DHT22;6746;50.892;4.064;2022-11-21T03:37:38;6.30;99.90
13354;DHT22;6746;50.892;4.064;2022-11-21T03:40:16;6.30;99.90
13354;DHT22;6746;50.892;4.064;2022-11-21T03:43:05;6.30;99.90
13354;DHT22;6746;50.892;4.064;2022-11-21T03:45:46;6.30;99.90
13354;DHT22;6746;50.892;4.064;2022-11-21T03:48:34;6.30;99.90
13354;DHT22;6746;50.892;4.064;2022-11-21T03:51:20;6.30;99.90
13354;DHT22;6746;50.892;4.064;2022-11-21T03:53:59;6.30;99.90
13354;DHT22;6746;50.892;4.064;2022-11-21T03:56:40;6.30;99.90
13354;DHT22;6746;50.892;4.064;2022-11-21T03:59:29;6.30;99.90
13354;DHT22;6746;50.892;4.064;2022-11-21T04:02:16;6.30;99.90
13354;DHT22;6746;50.892;4.064;2022-11-21T04:04:54;6.20;99.90
13354;DHT22;6746;50.892;4.064;2022-11-21T04:07:42;6.20;99.90
13354;DHT22;6746;50.892;4.064;2022-11-21T04:10:20;6.20;99.90
13354;DHT22;6746;50.892;4.064;2022-11-21T04:12:59;6.10;99.90
13354;DHT22;6746;50.892;4.064;2022-11-21T04:15:40;6.10;99.90
13354;DHT22;6746;50.892;4.064;2022-11-21T04:18:18;6.00;99.90
13354;DHT22;6746;50.892;4.064;2022-11-21T04:20:59;6.00;99.90
13354;DHT22;6746;50.892;4.064;2022-11-21T04:23:37;5.90;99.90
13354;DHT22;6746;50.892;4.064;2022-11-21T04:26:18;5.80;99.90
13354;DHT22;6746;50.892;4.064;2022-11-21T04:28:56;5.70;99.90
13354;DHT22;6746;50.892;4.064;2022-11-21T04:31:34;5.60;99.90
13354;DHT22;6746;50.892;4.064;2022-11-21T04:34:12;5.50;99.90
13354;DHT22;6746;50.892;4.064;2022-11-21T04:36:58;5.50;99.90
13354;DHT22;6746;50.892;4.064;2022-11-21T04:39:37;5.40;99.90
13354;DHT22;6746;50.892;4.064;2022-11-21T04:42:24;5.30;99.90
13354;DHT22;6746;50.892;4.064;2022-11-21T04:45:13;5.30;99.90
13354;DHT22;6746;50.892;4.064;2022-11-21T04:48:01;5.20;99.90
13354;DHT22;6746;50.892;4.064;2022-11-21T04:50:49;5.20;99.90
13354;DHT22;6746;50.892;4.064;2022-11-21T04:53:37;5.20;99.90
13354;DHT22;6746;50.892;4.064;2022-11-21T04:56:21;5.10;99.90
13354;DHT22;6746;50.892;4.064;2022-11-21T04:58:59;5.10;99.90
13354;DHT22;6746;50.892;4.064;2022-11-21T05:01:47;5.10;99.90
13354;DHT22;6746;50.892;4.064;2022-11-21T05:04:35;5.00;99.90
13354;DHT22;6746;50.892;4.064;2022-11-21T05:07:23;4.90;99.90
13354;DHT22;6746;50.892;4.064;2022-11-21T05:10:12;4.90;99.90
13354;DHT22;6746;50.892;4.064;2022-11-21T05:13:00;4.90;99.90
13354;DHT22;6746;50.892;4.064;2022-11-21T05:16:01;4.80;99.90
13354;DHT22;6746;50.892;4.064;2022-11-21T05:18:40;4.80;99.90
13354;DHT22;6746;50.892;4.064;2022-11-21T05:21:28;4.70;99.90
13354;DHT22;6746;50.892;4.064;2022-11-21T05:24:16;4.70;99.90
13354;DHT22;6746;50.892;4.064;2022-11-21T05:26:54;4.70;99.90
13354;DHT22;6746;50.892;4.064;2022-11-21T05:29:33;4.60;99.90
13354;DHT22;6746;50.892;4.064;2022-11-21T05:32:11;4.60;99.90
13354;DHT22;6746;50.892;4.064;2022-11-21T05:34:49;4.60;99.90
13354;DHT22;6746;50.892;4.064;2022-11-21T05:37:35;4.50;99.90
13354;DHT22;6746;50.892;4.064;2022-11-21T05:40:14;4.60;99.90
13354;DHT22;6746;50.892;4.064;2022-11-21T05:43:02;4.50;99.90
13354;DHT22;6746;50.892;4.064;2022-11-21T05:45:58;4.60;99.90
13354;DHT22;6746;50.892;4.064;2022-11-21T05:48:36;4.50;99.90
13354;DHT22;6746;50.892;4.064;2022-11-21T05:51:24;4.50;99.90
13354;DHT22;6746;50.892;4.064;2022-11-21T05:54:12;4.40;99.90
13354;DHT22;6746;50.892;4.064;2022-11-21T05:57:00;4.40;99.90
13354;DHT22;6746;50.892;4.064;2022-11-21T05:59:48;4.40;99.90
13354;DHT22;6746;50.892;4.064;2022-11-21T06:02:37;4.40;99.90
13354;DHT22;6746;50.892;4.064;2022-11-21T06:05:42;4.30;99.90
13354;DHT22;6746;50.892;4.064;2022-11-21T06:08:37;4.30;99.90
13354;DHT22;6746;50.892;4.064;2022-11-21T06:11:25;4.30;99.90
13354;DHT22;6746;50.892;4.064;2022-11-21T06:14:08;4.30;99.90
13354;DHT22;6746;50.892;4.064;2022-11-21T06:16:47;4.20;99.90
13354;DHT22;6746;50.892;4.064;2022-11-21T06:19:28;4.20;99.90
13354;DHT22;6746;50.892;4.064;2022-11-21T06:22:06;4.20;99.90
13354;DHT22;6746;50.892;4.064;2022-11-21T06:24:49;4.10;99.90
13354;DHT22;6746;50.892;4.064;2022-11-21T06:27:28;4.10;99.90
13354;DHT22;6746;50.892;4.064;2022-11-21T06:30:10;4.10;99.90
13354;DHT22;6746;50.892;4.064;2022-11-21T06:32:49;4.10;99.90
13354;DHT22;6746;50.892;4.064;2022-11-21T06:35:30;4.10;99.90
13354;DHT22;6746;50.892;4.064;2022-11-21T06:38:08;4.00;99.90
13354;DHT22;6746;50.892;4.064;2022-11-21T06:40:56;3.90;99.90
13354;DHT22;6746;50.892;4.064;2022-11-21T06:43:36;3.80;99.90
13354;DHT22;6746;50.892;4.064;2022-11-21T06:46:14;3.80;99.90
13354;DHT22;6746;50.892;4.064;2022-11-21T06:48:54;3.70;99.90
13354;DHT22;6746;50.892;4.064;2022-11-21T06:51:32;3.60;99.90
13354;DHT22;6746;50.892;4.064;2022-11-21T06:54:13;3.60;99.90
13354;DHT22;6746;50.892;4.064;2022-11-21T06:56:52;3.60;99.90
13354;DHT22;6746;50.892;4.064;2022-11-21T06:59:30;3.60;99.90
13354;DHT22;6746;50.892;4.064;2022-11-21T07:02:08;3.60;99.90
13354;DHT22;6746;50.892;4.064;2022-11-21T07:04:34;3.60;99.90
13354;DHT22;6746;50.892;4.064;2022-11-21T07:07:03;3.70;99.90
13354;DHT22;6746;50.892;4.064;2022-11-21T07:09:32;3.70;99.90
13354;DHT22;6746;50.892;4.064;2022-11-21T07:12:01;3.60;99.90
13354;DHT22;6746;50.892;4.064;2022-11-21T07:14:50;3.60;99.90
13354;DHT22;6746;50.892;4.064;2022-11-21T07:17:19;3.70;99.90
13354;DHT22;6746;50.892;4.064;2022-11-21T07:19:48;3.70;99.90
13354;DHT22;6746;50.892;4.064;2022-11-21T07:22:16;3.70;99.90
13354;DHT22;6746;50.892;4.064;2022-11-21T07:24:45;3.70;99.90
13354;DHT22;6746;50.892;4.064;2022-11-21T07:27:14;3.60;99.90
13354;DHT22;6746;50.892;4.064;2022-11-21T07:29:43;3.70;99.90
13354;DHT22;6746;50.892;4.064;2022-11-21T07:32:13;3.70;99.90
13354;DHT22;6746;50.892;4.064;2022-11-21T07:34:41;3.80;99.90
13354;DHT22;6746;50.892;4.064;2022-11-21T07:37:10;3.80;99.90
13354;DHT22;6746;50.892;4.064;2022-11-21T07:39:39;3.80;99.90
13354;DHT22;6746;50.892;4.064;2022-11-21T07:42:08;3.90;99.90
13354;DHT22;6746;50.892;4.064;2022-11-21T07:44:37;3.90;99.90
13354;DHT22;6746;50.892;4.064;2022-11-21T07:47:06;4.00;99.90
13354;DHT22;6746;50.892;4.064;2022-11-21T07:49:43;4.00;99.90
13354;DHT22;6746;50.892;4.064;2022-11-21T07:52:12;4.00;99.90
13354;DHT22;6746;50.892;4.064;2022-11-21T07:54:50;4.10;99.90
13354;DHT22;6746;50.892;4.064;2022-11-21T07:57:28;4.20;99.90
13354;DHT22;6746;50.892;4.064;2022-11-21T07:59:58;4.20;99.90
13354;DHT22;6746;50.892;4.064;2022-11-21T08:02:27;4.20;99.90
13354;DHT22;6746;50.892;4.064;2022-11-21T08:04:59;4.30;99.90
13354;DHT22;6746;50.892;4.064;2022-11-21T08:07:28;4.30;99.90
13354;DHT22;6746;50.892;4.064;2022-11-21T08:09:59;4.30;99.90
13354;DHT22;6746;50.892;4.064;2022-11-21T08:12:34;4.40;99.90
13354;DHT22;6746;50.892;4.064;2022-11-21T08:15:05;4.40;99.90
13354;DHT22;6746;50.892;4.064;2022-11-21T08:17:34;4.50;99.90
13354;DHT22;6746;50.892;4.064;2022-11-21T08:20:13;4.50;99.90
13354;DHT22;6746;50.892;4.064;2022-11-21T08:22:51;4.60;99.90
13354;DHT22;6746;50.892;4.064;2022-11-21T08:25:29;4.70;99.90
13354;DHT22;6746;50.892;4.064;2022-11-21T08:28:00;4.70;99.90
13354;DHT22;6746;50.892;4.064;2022-11-21T08:30:29;4.80;99.90
13354;DHT22;6746;50.892;4.064;2022-11-21T08:33:06;4.90;99.90
13354;DHT22;6746;50.892;4.064;2022-11-21T08:35:35;4.90;99.90
13354;DHT22;6746;50.892;4.064;2022-11-21T08:38:09;5.00;99.90
13354;DHT22;6746;50.892;4.064;2022-11-21T08:40:38;5.00;99.90
13354;DHT22;6746;50.892;4.064;2022-11-21T08:43:07;5.10;99.90
13354;DHT22;6746;50.892;4.064;2022-11-21T08:45:36;5.20;99.90
13354;DHT22;6746;50.892;4.064;2022-11-21T08:48:08;5.30;99.90
13354;DHT22;6746;50.892;4.064;2022-11-21T08:50:36;5.30;99.90
13354;DHT22;6746;50.892;4.064;2022-11-21T08:53:05;5.40;99.90
13354;DHT22;6746;50.892;4.064;2022-11-21T08:55:34;5.40;99.90
13354;DHT22;6746;50.892;4.064;2022-11-21T08:58:03;5.50;99.90
13354;DHT22;6746;50.892;4.064;2022-11-21T09:00:32;5.50;99.90
13354;DHT22;6746;50.892;4.064;2022-11-21T09:03:08;5.50;99.90
13354;DHT22;6746;50.892;4.064;2022-11-21T09:05:37;5.60;99.90
13354;DHT22;6746;50.892;4.064;2022-11-21T09:08:25;5.60;99.90
13354;DHT22;6746;50.892;4.064;2022-11-21T09:10:54;5.70;99.90
13354;DHT22;6746;50.892;4.064;2022-11-21T09:13:23;5.80;99.90
13354;DHT22;6746;50.892;4.064;2022-11-21T09:15:58;5.90;99.90
13354;DHT22;6746;50.892;4.064;2022-11-21T09:18:44;6.00;99.90
13354;DHT22;6746;50.892;4.064;2022-11-21T09:21:22;6.00;99.90
13354;DHT22;6746;50.892;4.064;2022-11-21T09:23:51;6.10;99.90
13354;DHT22;6746;50.892;4.064;2022-11-21T09:26:20;6.20;99.90
13354;DHT22;6746;50.892;4.064;2022-11-21T09:28:51;6.20;99.90
13354;DHT22;6746;50.892;4.064;2022-11-21T09:31:20;6.30;99.90
13354;DHT22;6746;50.892;4.064;2022-11-21T09:33:49;6.40;99.90
13354;DHT22;6746;50.892;4.064;2022-11-21T09:36:18;6.40;99.90
13354;DHT22;6746;50.892;4.064;2022-11-21T09:39:07;6.50;99.90
13354;DHT22;6746;50.892;4.064;2022-11-21T09:42:02;6.60;99.90
13354;DHT22;6746;50.892;4.064;2022-11-21T09:45:03;6.60;99.90
13354;DHT22;6746;50.892;4.064;2022-11-21T09:47:45;6.80;99.90
13354;DHT22;6746;50.892;4.064;2022-11-21T09:53:19;6.80;99.90
13354;DHT22;6746;50.892;4.064;2022-11-21T09:56:00;6.80;99.90
13354;DHT22;6746;50.892;4.064;2022-11-21T09:58:44;6.80;99.90
13354;DHT22;6746;50.892;4.064;2022-11-21T10:01:15;6.80;99.90
13354;DHT22;6746;50.892;4.064;2022-11-21T10:03:47;6.80;99.90
13354;DHT22;6746;50.892;4.064;2022-11-21T10:06:35;5.60;99.90
13354;DHT22;6746;50.892;4.064;2022-11-21T10:12:10;6.90;99.90
13354;DHT22;6746;50.892;4.064;2022-11-21T10:26:55;6.90;99.90
13354;DHT22;6746;50.892;4.064;2022-11-21T10:29:35;6.90;99.90
13354;DHT22;6746;50.892;4.064;2022-11-21T10:35:24;7.00;99.90
13354;DHT22;6746;50.892;4.064;2022-11-21T10:37:53;7.10;99.90
13354;DHT22;6746;50.892;4.064;2022-11-21T10:40:34;7.10;99.90
13354;DHT22;6746;50.892;4.064;2022-11-21T10:46:06;7.20;99.90
13354;DHT22;6746;50.892;4.064;2022-11-21T10:48:48;7.30;99.90
13354;DHT22;6746;50.892;4.064;2022-11-21T10:54:23;7.40;99.90
13354;DHT22;6746;50.892;4.064;2022-11-21T10:57:14;7.40;99.90
13354;DHT22;6746;50.892;4.064;2022-11-21T10:59:58;7.50;99.90
13354;DHT22;6746;50.892;4.064;2022-11-21T11:02:32;7.50;99.90
13354;DHT22;6746;50.892;4.064;2022-11-21T11:05:20;7.60;99.90
13354;DHT22;6746;50.892;4.064;2022-11-21T11:11:05;7.70;99.90
13354;DHT22;6746;50.892;4.064;2022-11-21T11:14:05;7.70;99.90
13354;DHT22;6746;50.892;4.064;2022-11-21T11:16:34;7.80;99.90
13354;DHT22;6746;50.892;4.064;2022-11-21T11:21:44;7.80;99.90
13354;DHT22;6746;50.892;4.064;2022-11-21T11:24:21;7.80;99.90
13354;DHT22;6746;50.892;4.064;2022-11-21T11:26:54;7.80;99.90
13354;DHT22;6746;50.892;4.064;2022-11-21T11:29:26;7.80;99.90
13354;DHT22;6746;50.892;4.064;2022-11-21T11:32:01;7.80;99.90
13354;DHT22;6746;50.892;4.064;2022-11-21T11:34:57;7.80;99.90
13354;DHT22;6746;50.892;4.064;2022-11-21T11:37:35;7.80;99.90
13354;DHT22;6746;50.892;4.064;2022-11-21T11:49:09;8.00;99.90
13354;DHT22;6746;50.892;4.064;2022-11-21T11:51:41;8.00;99.90
13354;DHT22;6746;50.892;4.064;2022-11-21T11:54:23;8.10;99.90
13354;DHT22;6746;50.892;4.064;2022-11-21T11:56:50;8.10;99.90
13354;DHT22;6746;50.892;4.064;2022-11-21T11:59:25;8.10;99.90
13354;DHT22;6746;50.892;4.064;2022-11-21T12:02:09;8.20;99.90
13354;DHT22;6746;50.892;4.064;2022-11-21T12:04:36;8.20;99.90
13354;DHT22;6746;50.892;4.064;2022-11-21T12:09:49;8.30;99.90
13354;DHT22;6746;50.892;4.064;2022-11-21T12:18:11;8.30;99.90
13354;DHT22;6746;50.892;4.064;2022-11-21T12:23:49;8.40;99.90
13354;DHT22;6746;50.892;4.064;2022-11-21T12:26:46;8.40;99.90
13354;DHT22;6746;50.892;4.064;2022-11-21T12:32:53;8.50;99.90
13354;DHT22;6746;50.892;4.064;2022-11-21T12:41:28;8.60;99.90
13354;DHT22;6746;50.892;4.064;2022-11-21T12:44:37;8.60;99.90
13354;DHT22;6746;50.892;4.064;2022-11-21T12:50:49;8.70;99.90
13354;DHT22;6746;50.892;4.064;2022-11-21T12:53:47;8.70;99.90
13354;DHT22;6746;50.892;4.064;2022-11-21T12:56:38;8.80;99.90
13354;DHT22;6746;50.892;4.064;2022-11-21T12:59:09;8.80;99.90
13354;DHT22;6746;50.892;4.064;2022-11-21T13:02:12;8.80;99.90
13354;DHT22;6746;50.892;4.064;2022-11-21T13:05:03;8.80;99.90
13354;DHT22;6746;50.892;4.064;2022-11-21T13:07:41;8.90;99.90
13354;DHT22;6746;50.892;4.064;2022-11-21T13:10:29;8.80;99.90
13354;DHT22;6746;50.892;4.064;2022-11-21T13:13:25;8.80;99.90
13354;DHT22;6746;50.892;4.064;2022-11-21T13:16:07;8.80;99.90
13354;DHT22;6746;50.892;4.064;2022-11-21T13:18:54;8.80;99.90
13354;DHT22;6746;50.892;4.064;2022-11-21T13:21:43;8.80;99.90
13354;DHT22;6746;50.892;4.064;2022-11-21T13:24:53;8.80;99.90
13354;DHT22;6746;50.892;4.064;2022-11-21T13:27:25;8.80;99.90
13354;DHT22;6746;50.892;4.064;2022-11-21T13:32:59;8.80;99.90
13354;DHT22;6746;50.892;4.064;2022-11-21T13:38:28;8.80;99.90
13354;DHT22;6746;50.892;4.064;2022-11-21T13:41:06;8.70;99.90
13354;DHT22;6746;50.892;4.064;2022-11-21T13:52:29;8.90;99.90
13354;DHT22;6746;50.892;4.064;2022-11-21T13:55:41;8.90;99.90
13354;DHT22;6746;50.892;4.064;2022-11-21T14:01:33;8.90;99.90
13354;DHT22;6746;50.892;4.064;2022-11-21T14:07:25;8.90;99.90
13354;DHT22;6746;50.892;4.064;2022-11-21T14:10:52;8.90;99.90
13354;DHT22;6746;50.892;4.064;2022-11-21T14:13:02;8.90;99.90
13354;DHT22;6746;50.892;4.064;2022-11-21T14:17:59;8.90;99.90
13354;DHT22;6746;50.892;4.064;2022-11-21T14:20:45;8.90;99.90
13354;DHT22;6746;50.892;4.064;2022-11-21T14:23:11;8.90;99.90
13354;DHT22;6746;50.892;4.064;2022-11-21T14:28:09;8.90;99.90
13354;DHT22;6746;50.892;4.064;2022-11-21T14:30:46;8.90;99.90
13354;DHT22;6746;50.892;4.064;2022-11-21T14:33:26;9.00;99.90
13354;DHT22;6746;50.892;4.064;2022-11-21T14:36:14;8.90;99.90
13354;DHT22;6746;50.892;4.064;2022-11-21T14:38:52;8.90;99.90
13354;DHT22;6746;50.892;4.064;2022-11-21T14:41:36;10.30;99.90
13354;DHT22;6746;50.892;4.064;2022-11-21T14:44:14;8.90;99.90
13354;DHT22;6746;50.892;4.064;2022-11-21T14:47:01;8.80;99.90
13354;DHT22;6746;50.892;4.064;2022-11-21T14:49:31;8.80;99.90
13354;DHT22;6746;50.892;4.064;2022-11-21T14:52:14;8.80;99.90
13354;DHT22;6746;50.892;4.064;2022-11-21T14:54:50;8.80;99.90
13354;DHT22;6746;50.892;4.064;2022-11-21T14:57:28;8.80;99.90
13354;DHT22;6746;50.892;4.064;2022-11-21T15:00:10;8.70;99.90
13354;DHT22;6746;50.892;4.064;2022-11-21T15:02:46;8.80;99.90
13354;DHT22;6746;50.892;4.064;2022-11-21T15:05:28;8.70;99.90
13354;DHT22;6746;50.892;4.064;2022-11-21T15:08:07;8.70;99.90
13354;DHT22;6746;50.892;4.064;2022-11-21T15:10:44;8.70;99.90
13354;DHT22;6746;50.892;4.064;2022-11-21T15:13:13;8.70;99.90
13354;DHT22;6746;50.892;4.064;2022-11-21T15:16:01;8.60;99.90
13354;DHT22;6746;50.892;4.064;2022-11-21T15:18:40;8.70;99.90
13354;DHT22;6746;50.892;4.064;2022-11-21T15:21:18;8.60;99.90
13354;DHT22;6746;50.892;4.064;2022-11-21T15:23:56;8.60;99.90
13354;DHT22;6746;50.892;4.064;2022-11-21T15:26:34;8.60;99.90
13354;DHT22;6746;50.892;4.064;2022-11-21T15:29:18;8.60;99.90
13354;DHT22;6746;50.892;4.064;2022-11-21T15:32:08;8.60;99.90
13354;DHT22;6746;50.892;4.064;2022-11-21T15:34:47;8.60;99.90
13354;DHT22;6746;50.892;4.064;2022-11-21T15:37:25;8.60;99.90
13354;DHT22;6746;50.892;4.064;2022-11-21T15:40:03;8.60;99.90
13354;DHT22;6746;50.892;4.064;2022-11-21T15:42:41;8.60;99.90
13354;DHT22;6746;50.892;4.064;2022-11-21T15:45:21;8.60;99.90
13354;DHT22;6746;50.892;4.064;2022-11-21T15:47:55;8.60;99.90
13354;DHT22;6746;50.892;4.064;2022-11-21T15:50:24;8.60;99.90
13354;DHT22;6746;50.892;4.064;2022-11-21T15:52:53;8.60;99.90
13354;DHT22;6746;50.892;4.064;2022-11-21T15:55:25;8.60;99.90
13354;DHT22;6746;50.892;4.064;2022-11-21T15:58:03;8.60;99.90
13354;DHT22;6746;50.892;4.064;2022-11-21T16:00:42;8.60;99.90
13354;DHT22;6746;50.892;4.064;2022-11-21T16:03:20;8.60;99.90
13354;DHT22;6746;50.892;4.064;2022-11-21T16:05:58;8.60;99.90
13354;DHT22;6746;50.892;4.064;2022-11-21T16:08:41;8.60;99.90
13354;DHT22;6746;50.892;4.064;2022-11-21T16:11:21;8.60;99.90
13354;DHT22;6746;50.892;4.064;2022-11-21T16:14:03;8.50;99.90
13354;DHT22;6746;50.892;4.064;2022-11-21T16:16:41;8.50;99.90
13354;DHT22;6746;50.892;4.064;2022-11-21T16:19:18;8.50;99.90
13354;DHT22;6746;50.892;4.064;2022-11-21T16:21:57;8.40;99.90
13354;DHT22;6746;50.892;4.064;2022-11-21T16:24:45;8.40;99.90
13354;DHT22;6746;50.892;4.064;2022-11-21T16:27:23;8.40;99.90
13354;DHT22;6746;50.892;4.064;2022-11-21T16:30:01;8.40;99.90
13354;DHT22;6746;50.892;4.064;2022-11-21T16:32:44;8.40;99.90
13354;DHT22;6746;50.892;4.064;2022-11-21T16:35:22;8.30;99.90
13354;DHT22;6746;50.892;4.064;2022-11-21T16:38:00;8.30;99.90
13354;DHT22;6746;50.892;4.064;2022-11-21T16:40:39;8.30;99.90
13354;DHT22;6746;50.892;4.064;2022-11-21T16:43:25;8.30;99.90
13354;DHT22;6746;50.892;4.064;2022-11-21T16:46:06;8.30;99.90
13354;DHT22;6746;50.892;4.064;2022-11-21T16:48:44;8.20;99.90
13354;DHT22;6746;50.892;4.064;2022-11-21T16:51:21;8.20;99.90
13354;DHT22;6746;50.892;4.064;2022-11-21T16:54:02;8.20;99.90
13354;DHT22;6746;50.892;4.064;2022-11-21T16:56:40;8.10;99.90
13354;DHT22;6746;50.892;4.064;2022-11-21T16:59:28;8.10;99.90
13354;DHT22;6746;50.892;4.064;2022-11-21T17:02:16;8.10;99.90
13354;DHT22;6746;50.892;4.064;2022-11-21T17:05:00;8.10;99.90
13354;DHT22;6746;50.892;4.064;2022-11-21T17:07:38;8.10;99.90
13354;DHT22;6746;50.892;4.064;2022-11-21T17:10:25;8.10;99.90
13354;DHT22;6746;50.892;4.064;2022-11-21T17:13:02;8.10;99.90
13354;DHT22;6746;50.892;4.064;2022-11-21T17:15:41;8.00;99.90
13354;DHT22;6746;50.892;4.064;2022-11-21T17:18:18;8.00;99.90
13354;DHT22;6746;50.892;4.064;2022-11-21T17:21:07;8.00;99.90
13354;DHT22;6746;50.892;4.064;2022-11-21T17:23:50;8.00;99.90
13354;DHT22;6746;50.892;4.064;2022-11-21T17:26:28;8.00;99.90
13354;DHT22;6746;50.892;4.064;2022-11-21T17:29:07;8.00;99.90
13354;DHT22;6746;50.892;4.064;2022-11-21T17:31:44;8.00;99.90
13354;DHT22;6746;50.892;4.064;2022-11-21T17:34:30;7.90;99.90
13354;DHT22;6746;50.892;4.064;2022-11-21T17:37:09;7.90;99.90
13354;DHT22;6746;50.892;4.064;2022-11-21T17:39:50;7.90;99.90
13354;DHT22;6746;50.892;4.064;2022-11-21T17:42:28;7.90;99.90
13354;DHT22;6746;50.892;4.064;2022-11-21T17:45:06;7.90;99.90
13354;DHT22;6746;50.892;4.064;2022-11-21T17:47:44;7.90;99.90
13354;DHT22;6746;50.892;4.064;2022-11-21T17:50:32;7.80;99.90
13354;DHT22;6746;50.892;4.064;2022-11-21T17:53:10;7.80;99.90
13354;DHT22;6746;50.892;4.064;2022-11-21T17:55:48;7.80;99.90
13354;DHT22;6746;50.892;4.064;2022-11-21T17:58:36;7.90;99.90
13354;DHT22;6746;50.892;4.064;2022-11-21T18:01:16;7.80;99.90
13354;DHT22;6746;50.892;4.064;2022-11-21T18:03:58;7.80;99.90
13354;DHT22;6746;50.892;4.064;2022-11-21T18:06:38;7.80;99.90
13354;DHT22;6746;50.892;4.064;2022-11-21T18:09:18;7.80;99.90
13354;DHT22;6746;50.892;4.064;2022-11-21T18:11:56;7.80;99.90
13354;DHT22;6746;50.892;4.064;2022-11-21T18:14:34;7.80;99.90
13354;DHT22;6746;50.892;4.064;2022-11-21T18:17:16;7.80;99.90
13354;DHT22;6746;50.892;4.064;2022-11-21T18:19:54;7.80;99.90
13354;DHT22;6746;50.892;4.064;2022-11-21T18:22:35;7.80;99.90
13354;DHT22;6746;50.892;4.064;2022-11-21T18:25:13;7.80;99.90
13354;DHT22;6746;50.892;4.064;2022-11-21T18:27:53;7.80;99.90
13354;DHT22;6746;50.892;4.064;2022-11-21T18:30:32;7.80;99.90
13354;DHT22;6746;50.892;4.064;2022-11-21T18:33:14;7.80;99.90
13354;DHT22;6746;50.892;4.064;2022-11-21T18:35:51;7.80;99.90
13354;DHT22;6746;50.892;4.064;2022-11-21T18:38:35;7.80;99.90
13354;DHT22;6746;50.892;4.064;2022-11-21T18:41:15;7.80;99.90
13354;DHT22;6746;50.892;4.064;2022-11-21T18:43:54;7.80;99.90
13354;DHT22;6746;50.892;4.064;2022-11-21T18:46:34;7.80;99.90
13354;DHT22;6746;50.892;4.064;2022-11-21T18:49:12;7.70;99.90
13354;DHT22;6746;50.892;4.064;2022-11-21T18:51:50;7.80;99.90
13354;DHT22;6746;50.892;4.064;2022-11-21T18:54:31;7.80;99.90
13354;DHT22;6746;50.892;4.064;2022-11-21T18:57:09;7.80;99.90
13354;DHT22;6746;50.892;4.064;2022-11-21T18:59:55;7.70;99.90